createdAt,value
2017-12-10T00:00:14.786Z,73.00
2017-12-10T00:02:42.997Z,73.00
2017-12-10T00:05:10.478Z,73.00
2017-12-10T00:07:37.935Z,73.00
2017-12-10T00:10:05.384Z,73.00
2017-12-10T00:12:32.864Z,73.00
2017-12-10T00:15:00.309Z,73.00
2017-12-10T00:17:27.769Z,73.00
2017-12-10T00:19:55.246Z,73.00
2017-12-10T00:22:22.697Z,73.00
2017-12-10T00:24:50.183Z,73.00
2017-12-10T00:27:18.396Z,73.20
2017-12-10T00:29:45.897Z,73.10
2017-12-10T00:32:13.342Z,73.20
2017-12-10T00:34:40.817Z,73.30
2017-12-10T00:37:08.290Z,73.20
2017-12-10T00:39:36.533Z,73.30
2017-12-10T00:42:04.790Z,73.40
2017-12-10T00:44:33.168Z,73.40
2017-12-10T00:47:00.611Z,73.40
2017-12-10T00:49:28.089Z,73.50
2017-12-10T00:51:55.548Z,73.50
2017-12-10T00:54:23.054Z,73.70
2017-12-10T00:56:51.293Z,73.60
2017-12-10T00:59:18.747Z,73.50
2017-12-10T01:01:46.228Z,73.60
2017-12-10T01:04:13.681Z,73.70
2017-12-10T01:06:41.196Z,73.80
2017-12-10T01:09:08.649Z,74.00
2017-12-10T01:11:36.093Z,73.90
2017-12-10T01:14:04.525Z,74.70
2017-12-10T01:16:33.669Z,73.80
2017-12-10T01:19:01.893Z,73.80
2017-12-10T01:21:29.366Z,73.80
2017-12-10T01:23:56.825Z,73.90
2017-12-10T01:26:24.305Z,73.90
2017-12-10T01:28:52.534Z,73.90
2017-12-10T01:31:20.017Z,73.90
2017-12-10T01:33:47.469Z,73.90
2017-12-10T01:36:14.958Z,74.00
2017-12-10T01:38:43.205Z,74.20
2017-12-10T01:41:10.680Z,74.10
2017-12-10T01:43:38.135Z,74.10
2017-12-10T01:46:05.616Z,74.10
2017-12-10T01:48:34.757Z,73.90
2017-12-10T01:51:02.300Z,73.90
2017-12-10T01:53:29.760Z,73.90
2017-12-10T01:55:57.238Z,73.90
2017-12-10T01:58:24.692Z,74.00
2017-12-10T02:00:52.161Z,73.90
2017-12-10T02:03:19.621Z,74.00
2017-12-10T02:05:47.119Z,74.00
2017-12-10T02:08:15.361Z,74.20
2017-12-10T02:10:42.822Z,74.00
2017-12-10T02:13:10.294Z,74.30
2017-12-10T02:15:37.774Z,74.20
2017-12-10T02:18:06.026Z,74.40
2017-12-10T02:20:33.470Z,74.40
2017-12-10T02:23:00.935Z,74.40
2017-12-10T02:25:28.423Z,74.40
2017-12-10T02:27:56.645Z,74.50
2017-12-10T02:30:24.128Z,74.50
2017-12-10T02:32:51.592Z,74.50
2017-12-10T02:35:19.098Z,74.70
2017-12-10T02:37:46.564Z,74.80
2017-12-10T02:40:14.045Z,74.70
2017-12-10T02:42:41.525Z,74.50
2017-12-10T02:45:08.965Z,74.40
2017-12-10T02:47:36.457Z,74.20
2017-12-10T02:50:05.602Z,73.90
2017-12-10T02:52:33.062Z,73.90
2017-12-10T02:55:00.537Z,73.90
2017-12-10T02:57:28.023Z,73.90
2017-12-10T02:59:55.489Z,73.90
2017-12-10T03:02:23.740Z,73.70
2017-12-10T03:04:51.193Z,73.70
2017-12-10T03:07:18.661Z,74.60
2017-12-10T03:09:46.131Z,73.70
2017-12-10T03:12:13.593Z,73.60
2017-12-10T03:14:41.082Z,73.60
2017-12-10T03:17:08.539Z,73.30
2017-12-10T03:19:36.946Z,73.90
2017-12-10T03:22:04.417Z,73.90
2017-12-10T03:24:31.894Z,73.80
2017-12-10T03:26:59.381Z,73.80
2017-12-10T03:29:27.613Z,74.00
2017-12-10T03:31:55.088Z,74.00
2017-12-10T03:34:22.546Z,74.20
2017-12-10T03:36:50.030Z,74.20
2017-12-10T03:39:18.258Z,74.40
2017-12-10T03:41:45.716Z,74.30
2017-12-10T03:44:13.197Z,74.30
2017-12-10T03:46:40.671Z,74.40
2017-12-10T03:49:08.890Z,74.40
2017-12-10T03:51:37.605Z,74.30
2017-12-10T03:54:05.062Z,74.30
2017-12-10T03:56:32.606Z,74.40
2017-12-10T03:59:00.058Z,74.50
2017-12-10T04:01:27.563Z,74.40
2017-12-10T04:03:55.022Z,74.40
2017-12-10T04:06:22.469Z,74.20
2017-12-10T04:08:49.941Z,74.20
2017-12-10T04:11:17.404Z,74.20
2017-12-10T04:13:45.646Z,74.10
2017-12-10T04:16:13.102Z,74.10
2017-12-10T04:18:40.605Z,73.90
2017-12-10T04:21:08.073Z,73.80
2017-12-10T04:26:09.571Z,73.80
2017-12-10T04:28:37.889Z,73.80
2017-12-10T04:31:05.352Z,73.80
2017-12-10T04:33:32.821Z,73.70
2017-12-10T04:36:01.033Z,73.70
2017-12-10T04:38:28.525Z,73.70
2017-12-10T04:40:55.988Z,73.70
2017-12-10T04:43:23.458Z,73.80
2017-12-10T04:45:50.937Z,73.60
2017-12-10T04:48:18.420Z,74.40
2017-12-10T04:50:45.873Z,73.50
2017-12-10T04:53:13.345Z,73.50
2017-12-10T04:55:41.997Z,73.60
2017-12-10T04:58:09.490Z,73.60
2017-12-10T05:00:36.949Z,73.60
2017-12-10T05:03:04.406Z,73.70
2017-12-10T05:05:31.903Z,73.60
2017-12-10T05:07:59.361Z,73.60
2017-12-10T05:10:26.829Z,73.50
2017-12-10T05:12:54.285Z,73.40
2017-12-10T05:15:21.759Z,73.00
2017-12-10T05:17:49.998Z,73.80
2017-12-10T05:20:17.491Z,73.70
2017-12-10T05:22:45.705Z,73.70
2017-12-10T05:25:13.185Z,73.60
2017-12-10T05:27:40.669Z,73.60
2017-12-10T05:30:09.510Z,73.60
2017-12-10T05:32:36.965Z,73.50
2017-12-10T05:35:04.445Z,73.30
2017-12-10T05:37:32.006Z,73.40
2017-12-10T05:39:59.465Z,73.50
2017-12-10T05:42:26.954Z,73.50
2017-12-10T05:44:54.401Z,73.50
2017-12-10T05:47:21.859Z,73.40
2017-12-10T05:49:49.330Z,73.40
2017-12-10T05:52:16.821Z,73.40
2017-12-10T05:54:44.297Z,73.40
2017-12-10T05:57:11.754Z,73.40
2017-12-10T05:59:39.215Z,73.50
2017-12-10T06:02:06.677Z,73.60
2017-12-10T06:04:34.129Z,73.60
2017-12-10T06:07:01.602Z,73.50
2017-12-10T06:09:29.058Z,73.40
2017-12-10T06:11:56.533Z,73.40
2017-12-10T06:14:23.990Z,73.40
2017-12-10T06:16:51.469Z,73.40
2017-12-10T06:19:18.942Z,73.30
2017-12-10T06:21:47.187Z,73.30
2017-12-10T06:24:14.642Z,73.20
2017-12-10T06:26:42.881Z,73.40
2017-12-10T06:29:10.330Z,73.30
2017-12-10T06:31:37.805Z,73.50
2017-12-10T06:34:05.250Z,73.60
2017-12-10T06:36:32.718Z,73.60
2017-12-10T06:39:00.180Z,73.50
2017-12-10T06:41:27.649Z,73.50
2017-12-10T06:43:55.126Z,73.50
2017-12-10T06:46:22.606Z,73.40
2017-12-10T06:48:50.054Z,73.40
2017-12-10T06:51:17.537Z,74.60
2017-12-10T06:53:45.781Z,73.60
2017-12-10T06:56:14.085Z,73.50
2017-12-10T06:58:42.335Z,73.60
2017-12-10T07:01:10.049Z,73.50
2017-12-10T07:03:37.497Z,73.60
2017-12-10T07:06:04.978Z,73.40
2017-12-10T07:08:32.459Z,73.40
2017-12-10T07:10:59.906Z,73.50
2017-12-10T07:13:27.394Z,73.50
2017-12-10T07:15:54.866Z,73.50
2017-12-10T07:18:22.326Z,73.40
2017-12-10T07:20:49.809Z,73.20
2017-12-10T07:23:17.257Z,73.30
2017-12-10T07:25:44.710Z,73.80
2017-12-10T07:28:12.205Z,73.00
2017-12-10T07:30:40.568Z,73.00
2017-12-10T07:33:08.284Z,73.10
2017-12-10T07:35:36.057Z,73.00
2017-12-10T07:38:03.875Z,72.80
2017-12-10T07:40:31.632Z,73.00
2017-12-10T07:42:59.598Z,73.00
2017-12-10T07:45:28.425Z,73.10
2017-12-10T07:47:56.150Z,73.10
2017-12-10T07:50:23.666Z,73.10
2017-12-10T07:52:51.424Z,73.00
2017-12-10T07:55:19.108Z,73.00
2017-12-10T07:57:46.727Z,72.90
2017-12-10T08:00:14.560Z,72.80
2017-12-10T08:02:42.984Z,72.90
2017-12-10T08:05:11.326Z,73.60
2017-12-10T08:07:39.075Z,72.90
2017-12-10T08:10:06.915Z,72.90
2017-12-10T08:12:34.700Z,72.60
2017-12-10T08:15:03.162Z,72.60
2017-12-10T08:17:30.968Z,72.60
2017-12-10T08:19:58.797Z,72.60
2017-12-10T08:22:26.554Z,72.70
2017-12-10T08:24:54.175Z,72.60
2017-12-10T08:27:21.962Z,72.50
2017-12-10T08:29:49.687Z,72.50
2017-12-10T08:32:18.198Z,72.30
2017-12-10T08:34:45.939Z,72.20
2017-12-10T08:37:13.768Z,72.20
2017-12-10T08:39:42.654Z,72.10
2017-12-10T08:42:10.363Z,72.10
2017-12-10T08:44:38.155Z,71.90
2017-12-10T08:47:05.953Z,71.70
2017-12-10T08:49:33.757Z,71.50
2017-12-10T08:52:01.667Z,71.50
2017-12-10T08:54:29.536Z,71.50
2017-12-10T08:56:57.281Z,71.50
2017-12-10T08:59:25.017Z,71.50
2017-12-10T09:01:53.785Z,71.40
2017-12-10T09:04:21.520Z,71.40
2017-12-10T09:06:49.388Z,71.50
2017-12-10T09:09:17.236Z,71.20
2017-12-10T09:11:45.019Z,71.20
2017-12-10T09:14:12.874Z,71.00
2017-12-10T09:16:40.682Z,70.70
2017-12-10T09:19:08.474Z,70.70
2017-12-10T09:21:36.212Z,70.70
2017-12-10T09:24:04.020Z,70.70
2017-12-10T09:26:31.889Z,70.70
2017-12-10T09:28:59.601Z,70.60
2017-12-10T09:31:27.455Z,70.70
2017-12-10T09:33:55.186Z,70.70
2017-12-10T09:36:23.022Z,70.60
2017-12-10T09:38:51.511Z,70.30
2017-12-10T09:41:20.022Z,70.10
2017-12-10T09:43:48.036Z,70.10
2017-12-10T09:46:15.940Z,70.10
2017-12-10T09:48:43.792Z,70.00
2017-12-10T09:51:11.619Z,70.00
2017-12-10T09:53:39.490Z,70.10
2017-12-10T09:56:07.346Z,70.00
2017-12-10T09:58:35.207Z,69.60
2017-12-10T10:01:02.897Z,69.40
2017-12-10T10:03:30.585Z,69.50
2017-12-10T10:05:59.273Z,69.30
2017-12-10T10:08:27.769Z,69.20
2017-12-10T10:10:56.223Z,69.00
2017-12-10T10:13:23.982Z,69.00
2017-12-10T10:15:51.870Z,68.90
2017-12-10T10:18:20.435Z,69.00
2017-12-10T10:20:48.393Z,69.00
2017-12-10T10:23:16.930Z,68.70
2017-12-10T10:25:44.636Z,68.70
2017-12-10T10:28:12.327Z,68.60
2017-12-10T10:30:41.017Z,69.00
2017-12-10T10:33:08.691Z,68.50
2017-12-10T10:35:37.116Z,68.30
2017-12-10T10:38:04.788Z,68.30
2017-12-10T10:40:32.454Z,68.40
2017-12-10T10:43:00.243Z,68.50
2017-12-10T10:45:28.029Z,68.40
2017-12-10T10:47:56.531Z,68.50
2017-12-10T10:50:24.385Z,68.40
2017-12-10T10:52:52.910Z,68.60
2017-12-10T10:55:20.615Z,68.60
2017-12-10T10:57:48.446Z,68.80
2017-12-10T11:00:16.188Z,68.70
2017-12-10T11:02:44.697Z,68.90
2017-12-10T11:05:12.628Z,69.20
2017-12-10T11:07:40.694Z,69.30
2017-12-10T11:10:08.530Z,69.60
2017-12-10T11:12:36.265Z,69.70
2017-12-10T11:15:04.315Z,69.50
2017-12-10T11:17:32.326Z,69.90
2017-12-10T11:20:00.456Z,70.70
2017-12-10T11:22:28.235Z,71.00
2017-12-10T11:24:56.072Z,71.40
2017-12-10T11:27:24.066Z,71.50
2017-12-10T11:29:51.932Z,71.60
2017-12-10T11:32:19.863Z,71.70
2017-12-10T11:34:48.503Z,72.00
2017-12-10T11:37:16.296Z,72.10
2017-12-10T11:39:44.377Z,72.20
2017-12-10T11:42:12.288Z,72.30
2017-12-10T11:44:40.109Z,72.60
2017-12-10T11:47:08.118Z,72.30
2017-12-10T11:49:35.866Z,72.60
2017-12-10T11:52:03.783Z,72.80
2017-12-10T11:54:31.320Z,73.10
2017-12-10T11:56:59.049Z,73.50
2017-12-10T11:59:27.154Z,73.60
2017-12-10T12:01:54.894Z,73.80
2017-12-10T12:04:23.416Z,74.20
2017-12-10T12:06:52.031Z,74.50
2017-12-10T12:09:20.025Z,74.50
2017-12-10T12:11:48.109Z,74.60
2017-12-10T12:14:16.119Z,74.60
2017-12-10T12:16:44.054Z,74.60
2017-12-10T12:19:11.992Z,74.60
2017-12-10T12:21:40.078Z,74.80
2017-12-10T12:24:07.821Z,75.10
2017-12-10T12:26:36.768Z,75.20
2017-12-10T12:29:04.566Z,75.40
2017-12-10T12:31:32.245Z,75.40
2017-12-10T12:34:00.044Z,75.60
2017-12-10T12:36:27.560Z,75.60
2017-12-10T12:38:55.327Z,75.90
2017-12-10T12:41:23.094Z,75.90
2017-12-10T12:43:50.782Z,75.90
2017-12-10T12:46:18.499Z,75.90
2017-12-10T12:48:46.468Z,75.60
2017-12-10T12:51:14.119Z,75.50
2017-12-10T12:53:42.028Z,75.70
2017-12-10T12:56:09.760Z,76.10
2017-12-10T12:58:37.575Z,76.30
2017-12-10T13:01:05.256Z,76.40
2017-12-10T13:03:32.939Z,77.00
2017-12-10T13:06:00.719Z,76.40
2017-12-10T13:08:28.649Z,76.40
2017-12-10T13:10:56.454Z,77.40
2017-12-10T13:13:24.174Z,77.00
2017-12-10T13:15:52.615Z,77.30
2017-12-10T13:18:20.463Z,77.30
2017-12-10T13:20:48.158Z,77.40
2017-12-10T13:23:15.936Z,77.50
2017-12-10T13:25:43.902Z,77.60
2017-12-10T13:28:11.731Z,77.70
2017-12-10T13:30:39.858Z,77.80
2017-12-10T13:33:07.745Z,77.90
2017-12-10T13:35:35.670Z,77.80
2017-12-10T13:38:03.432Z,77.80
2017-12-10T13:40:31.202Z,77.80
2017-12-10T13:42:59.979Z,78.20
2017-12-10T13:45:27.687Z,78.20
2017-12-10T13:47:56.341Z,78.00
2017-12-10T13:50:24.436Z,78.00
2017-12-10T13:52:52.807Z,78.90
2017-12-10T13:55:20.842Z,78.20
2017-12-10T13:57:50.322Z,78.20
2017-12-10T14:00:18.224Z,78.20
2017-12-10T14:02:45.914Z,78.40
2017-12-10T14:05:13.827Z,78.30
2017-12-10T14:07:42.572Z,78.40
2017-12-10T14:10:11.013Z,78.50
2017-12-10T14:12:38.774Z,78.40
2017-12-10T14:15:06.489Z,78.40
2017-12-10T14:17:35.019Z,78.30
2017-12-10T14:20:03.106Z,78.20
2017-12-10T14:22:31.830Z,78.30
2017-12-10T14:24:59.874Z,78.30
2017-12-10T14:27:27.643Z,78.40
2017-12-10T14:29:56.347Z,78.30
2017-12-10T14:32:24.019Z,78.30
2017-12-10T14:34:52.568Z,78.40
2017-12-10T14:37:20.383Z,78.40
2017-12-10T14:39:48.695Z,78.50
2017-12-10T14:42:16.489Z,78.50
2017-12-10T14:44:46.194Z,78.60
2017-12-10T14:47:14.108Z,78.60
2017-12-10T14:49:41.779Z,78.60
2017-12-10T14:52:09.382Z,78.60
2017-12-10T14:54:37.155Z,78.70
2017-12-10T14:57:04.817Z,78.90
2017-12-10T14:59:32.374Z,78.90
2017-12-10T15:02:00.258Z,78.80
2017-12-10T15:04:27.994Z,79.10
2017-12-10T15:06:55.781Z,79.00
2017-12-10T15:09:23.454Z,79.00
2017-12-10T15:11:51.248Z,79.00
2017-12-10T15:14:20.429Z,79.40
2017-12-10T15:16:49.033Z,79.10
2017-12-10T15:19:16.863Z,78.90
2017-12-10T15:21:44.993Z,78.90
2017-12-10T15:24:13.517Z,78.90
2017-12-10T15:26:41.414Z,78.80
2017-12-10T15:29:09.449Z,79.00
2017-12-10T15:31:38.093Z,79.40
2017-12-10T15:34:05.907Z,78.90
2017-12-10T15:36:33.816Z,78.90
2017-12-10T15:39:01.765Z,78.70
2017-12-10T15:41:30.489Z,78.70
2017-12-10T15:43:58.428Z,79.50
2017-12-10T15:46:26.522Z,78.80
2017-12-10T15:48:54.645Z,79.50
2017-12-10T15:51:22.851Z,78.60
2017-12-10T15:53:51.395Z,78.60
2017-12-10T15:56:20.309Z,78.50
2017-12-10T15:58:48.209Z,78.50
2017-12-10T16:01:15.991Z,78.60
2017-12-10T16:03:44.102Z,78.50
2017-12-10T16:06:11.915Z,78.50
2017-12-10T16:08:39.701Z,78.50
2017-12-10T16:11:07.378Z,78.40
2017-12-10T16:13:35.165Z,78.50
2017-12-10T16:16:03.445Z,78.60
2017-12-10T16:18:31.772Z,78.70
2017-12-10T16:21:00.004Z,78.70
2017-12-10T16:23:28.160Z,78.80
2017-12-10T16:25:56.007Z,78.90
2017-12-10T16:28:24.089Z,79.00
2017-12-10T16:30:52.926Z,79.30
2017-12-10T16:33:22.070Z,79.60
2017-12-10T16:35:51.592Z,79.60
2017-12-10T16:38:19.606Z,79.80
2017-12-10T16:40:47.763Z,80.10
2017-12-10T16:43:15.834Z,80.40
2017-12-10T16:45:44.690Z,80.70
2017-12-10T16:48:12.766Z,80.70
2017-12-10T16:50:40.930Z,80.80
2017-12-10T16:53:08.955Z,80.90
2017-12-10T16:55:37.184Z,80.90
2017-12-10T16:58:05.045Z,81.00
2017-12-10T17:00:33.173Z,81.10
2017-12-10T17:03:01.264Z,81.30
2017-12-10T17:05:29.302Z,81.40
2017-12-10T17:07:58.112Z,81.50
2017-12-10T17:10:27.157Z,81.50
2017-12-10T17:12:56.066Z,81.50
2017-12-10T17:15:25.844Z,81.60
2017-12-10T17:17:54.021Z,81.50
2017-12-10T17:20:22.367Z,81.50
2017-12-10T17:22:50.435Z,81.40
2017-12-10T17:25:18.522Z,81.50
2017-12-10T17:27:46.753Z,81.40
2017-12-10T17:30:16.408Z,81.50
2017-12-10T17:32:44.906Z,81.40
2017-12-10T17:35:13.167Z,82.20
2017-12-10T17:37:41.251Z,81.50
2017-12-10T17:40:09.225Z,81.50
2017-12-10T17:42:37.907Z,81.50
2017-12-10T17:45:05.961Z,81.80
2017-12-10T17:47:38.715Z,81.50
2017-12-10T17:50:06.933Z,81.60
2017-12-10T17:52:36.930Z,81.60
2017-12-10T17:55:08.418Z,81.60
2017-12-10T17:57:36.538Z,81.50
2017-12-10T18:00:04.773Z,81.50
2017-12-10T18:02:34.625Z,81.60
2017-12-10T18:05:03.590Z,81.60
2017-12-10T18:07:31.578Z,81.60
2017-12-10T18:09:59.555Z,81.50
2017-12-10T18:12:29.153Z,81.50
2017-12-10T18:14:58.444Z,81.50
2017-12-10T18:17:30.143Z,81.40
2017-12-10T18:19:58.147Z,81.40
2017-12-10T18:22:26.247Z,82.30
2017-12-10T18:24:54.377Z,81.40
2017-12-10T18:27:23.539Z,81.50
2017-12-10T18:29:52.792Z,81.70
2017-12-10T18:32:22.358Z,81.60
2017-12-10T18:34:50.477Z,81.50
2017-12-10T18:37:18.656Z,81.40
2017-12-10T18:39:47.609Z,81.30
2017-12-10T18:42:15.649Z,81.30
2017-12-10T18:44:43.849Z,80.50
2017-12-10T18:47:14.146Z,81.60
2017-12-10T18:49:42.484Z,80.40
2017-12-10T18:52:10.564Z,80.50
2017-12-10T18:54:39.236Z,80.60
2017-12-10T18:57:07.472Z,80.70
2017-12-10T18:59:35.515Z,80.20
2017-12-10T19:02:04.574Z,79.70
2017-12-10T19:04:33.402Z,79.30
2017-12-10T19:07:01.405Z,79.10
2017-12-10T19:09:30.018Z,78.60
2017-12-10T19:11:58.963Z,78.70
2017-12-10T19:14:27.100Z,78.70
2017-12-10T19:16:55.192Z,79.00
2017-12-10T19:19:23.147Z,79.40
2017-12-10T19:21:51.222Z,79.50
2017-12-10T19:24:19.286Z,79.40
2017-12-10T19:26:47.601Z,79.50
2017-12-10T19:29:18.919Z,79.30
2017-12-10T19:31:46.836Z,78.10
2017-12-10T19:34:14.559Z,78.20
2017-12-10T19:36:42.383Z,78.10
2017-12-10T19:39:09.990Z,78.10
2017-12-10T19:41:37.823Z,78.40
2017-12-10T19:44:05.603Z,78.10
2017-12-10T19:46:34.429Z,77.20
2017-12-10T19:49:02.128Z,77.20
2017-12-10T19:51:29.822Z,77.00
2017-12-10T19:53:58.548Z,75.40
2017-12-10T19:56:26.369Z,75.30
2017-12-10T19:58:54.998Z,74.80
2017-12-10T20:01:22.750Z,75.10
2017-12-10T20:03:50.778Z,75.50
2017-12-10T20:06:18.825Z,75.00
2017-12-10T20:08:46.464Z,75.10
2017-12-10T20:11:14.961Z,74.70
2017-12-10T20:13:43.248Z,75.00
2017-12-10T20:16:11.787Z,74.60
2017-12-10T20:18:39.539Z,74.60
2017-12-10T20:21:07.507Z,74.40
2017-12-10T20:23:35.262Z,74.30
2017-12-10T20:26:03.335Z,74.40
2017-12-10T20:28:31.333Z,74.40
2017-12-10T20:30:59.938Z,74.20
2017-12-10T20:33:27.677Z,73.70
2017-12-10T20:35:57.114Z,74.00
2017-12-10T20:38:24.931Z,74.30
2017-12-10T20:40:52.691Z,74.70
2017-12-10T20:43:21.408Z,75.00
2017-12-10T20:45:49.216Z,74.90
2017-12-10T20:48:17.055Z,75.40
2017-12-10T20:50:44.757Z,75.80
2017-12-10T20:53:12.387Z,75.60
2017-12-10T20:55:39.858Z,75.50
2017-12-10T20:58:07.317Z,75.00
2017-12-10T21:00:34.794Z,74.80
2017-12-10T21:03:02.245Z,75.10
2017-12-10T21:05:30.261Z,75.30
2017-12-10T21:07:57.709Z,75.40
2017-12-10T21:10:25.949Z,75.50
2017-12-10T21:12:53.397Z,75.50
2017-12-10T21:15:20.858Z,75.80
2017-12-10T21:17:48.325Z,76.00
2017-12-10T21:20:15.786Z,76.10
2017-12-10T21:22:43.253Z,76.20
2017-12-10T21:25:10.757Z,76.30
2017-12-10T21:27:38.249Z,76.50
2017-12-10T21:30:05.701Z,76.50
2017-12-10T21:32:33.180Z,76.50
2017-12-10T21:35:00.761Z,76.50
2017-12-10T21:37:28.978Z,76.50
2017-12-10T21:39:56.456Z,76.50
2017-12-10T21:42:23.930Z,76.30
2017-12-10T21:44:51.381Z,77.20
2017-12-10T21:47:18.856Z,76.50
2017-12-10T21:49:46.296Z,76.10
2017-12-10T21:52:13.772Z,76.00
2017-12-10T21:54:41.225Z,75.70
2017-12-10T21:57:08.697Z,75.20
2017-12-10T21:59:36.929Z,75.10
2017-12-10T22:02:04.386Z,75.00
2017-12-10T22:04:31.858Z,74.90
2017-12-10T22:06:59.325Z,75.10
2017-12-10T22:09:26.786Z,75.00
2017-12-10T22:11:54.236Z,74.90
2017-12-10T22:14:21.713Z,74.70
2017-12-10T22:16:49.189Z,74.70
2017-12-10T22:19:17.410Z,74.70
2017-12-10T22:21:44.877Z,74.70
2017-12-10T22:24:12.341Z,74.60
2017-12-10T22:26:39.846Z,74.50
2017-12-10T22:29:07.330Z,74.50
2017-12-10T22:31:34.797Z,74.50
2017-12-10T22:34:02.246Z,74.40
2017-12-10T22:36:29.714Z,74.20
2017-12-10T22:38:57.177Z,74.20
2017-12-10T22:41:24.657Z,74.20
2017-12-10T22:43:52.150Z,74.10
2017-12-10T22:46:20.367Z,73.90
2017-12-10T22:48:47.832Z,73.80
2017-12-10T22:51:15.286Z,73.80
2017-12-10T22:53:42.759Z,73.60
2017-12-10T22:56:10.257Z,73.60
2017-12-10T22:58:38.470Z,73.50
2017-12-10T23:01:05.931Z,73.50
2017-12-10T23:03:33.397Z,74.40
2017-12-10T23:06:00.870Z,73.70
2017-12-10T23:08:28.337Z,73.40
2017-12-10T23:10:55.782Z,73.30
2017-12-10T23:13:35.074Z,73.10
2017-12-10T23:16:02.526Z,73.30
2017-12-10T23:18:29.979Z,73.20
2017-12-10T23:20:57.462Z,73.20
2017-12-10T23:23:24.913Z,73.10
2017-12-10T23:25:52.361Z,73.10
2017-12-10T23:28:19.828Z,73.00
2017-12-10T23:30:47.305Z,73.90
2017-12-10T23:33:14.754Z,73.00
2017-12-10T23:35:42.210Z,72.80
2017-12-10T23:38:09.690Z,72.90
2017-12-10T23:40:37.136Z,72.80
2017-12-10T23:43:04.613Z,72.60
2017-12-10T23:45:32.829Z,72.60
2017-12-10T23:48:01.074Z,72.40
2017-12-10T23:50:28.530Z,72.40
2017-12-10T23:52:55.982Z,72.40
2017-12-10T23:55:23.471Z,72.10
2017-12-10T23:57:51.717Z,72.10
